sensor_id;sensor_type;location;lat;lon;timestamp;pressure;altitude;pressure_sealevel;temperature;humidity
53526;BME280;40551;50.478;19.378;2023-06-14T00:00:50;97858.56;;;9.32;78.04
53526;BME280;40551;50.478;19.378;2023-06-14T00:03:42;97860.73;;;9.35;78.28
53526;BME280;40551;50.478;19.378;2023-06-14T00:06:14;97857.60;;;9.40;78.43
53526;BME280;40551;50.478;19.378;2023-06-14T00:08:46;97854.59;;;9.45;78.47
53526;BME280;40551;50.478;19.378;2023-06-14T00:11:16;97855.95;;;9.49;78.71
53526;BME280;40551;50.478;19.378;2023-06-14T00:13:48;97856.43;;;9.52;79.10
53526;BME280;40551;50.478;19.378;2023-06-14T00:16:19;97860.08;;;9.56;79.04
53526;BME280;40551;50.478;19.378;2023-06-14T00:18:51;97860.50;;;9.61;79.28
53526;BME280;40551;50.478;19.378;2023-06-14T00:21:23;97862.90;;;9.65;79.52
53526;BME280;40551;50.478;19.378;2023-06-14T00:23:53;97861.44;;;9.68;79.61
53526;BME280;40551;50.478;19.378;2023-06-14T00:26:25;97855.06;;;9.72;79.71
53526;BME280;40551;50.478;19.378;2023-06-14T00:28:58;97856.08;;;9.78;79.76
53526;BME280;40551;50.478;19.378;2023-06-14T00:31:30;97852.44;;;9.83;79.52
53526;BME280;40551;50.478;19.378;2023-06-14T00:34:02;97849.02;;;9.84;79.51
53526;BME280;40551;50.478;19.378;2023-06-14T00:36:32;97847.04;;;9.87;79.54
53526;BME280;40551;50.478;19.378;2023-06-14T00:39:03;97850.28;;;9.88;79.58
53526;BME280;40551;50.478;19.378;2023-06-14T00:41:33;97848.44;;;9.87;79.53
53526;BME280;40551;50.478;19.378;2023-06-14T00:44:05;97848.38;;;9.88;79.52
53526;BME280;40551;50.478;19.378;2023-06-14T00:46:37;97844.64;;;9.89;79.59
53526;BME280;40551;50.478;19.378;2023-06-14T00:49:07;97846.42;;;9.92;79.78
53526;BME280;40551;50.478;19.378;2023-06-14T00:51:39;97845.97;;;9.95;79.89
53526;BME280;40551;50.478;19.378;2023-06-14T00:54:11;97842.18;;;10.01;79.97
53526;BME280;40551;50.478;19.378;2023-06-14T00:56:44;97836.95;;;10.06;80.11
53526;BME280;40551;50.478;19.378;2023-06-14T00:59:16;97838.73;;;10.12;80.11
53526;BME280;40551;50.478;19.378;2023-06-14T01:01:48;97838.52;;;10.16;80.17
53526;BME280;40551;50.478;19.378;2023-06-14T01:04:20;97841.80;;;10.20;80.36
53526;BME280;40551;50.478;19.378;2023-06-14T01:06:58;97840.48;;;10.25;80.38
53526;BME280;40551;50.478;19.378;2023-06-14T01:09:51;97838.73;;;10.31;80.72
53526;BME280;40551;50.478;19.378;2023-06-14T01:12:52;97839.06;;;10.38;80.64
53526;BME280;40551;50.478;19.378;2023-06-14T01:15:28;97838.30;;;10.44;80.80
53526;BME280;40551;50.478;19.378;2023-06-14T01:18:01;97834.27;;;10.49;81.17
53526;BME280;40551;50.478;19.378;2023-06-14T01:20:35;97831.04;;;10.54;81.04
53526;BME280;40551;50.478;19.378;2023-06-14T01:23:08;97832.17;;;10.61;81.16
53526;BME280;40551;50.478;19.378;2023-06-14T01:25:38;97828.20;;;10.67;81.42
53526;BME280;40551;50.478;19.378;2023-06-14T01:28:16;97826.27;;;10.73;81.61
53526;BME280;40551;50.478;19.378;2023-06-14T01:30:52;97826.83;;;10.78;81.66
53526;BME280;40551;50.478;19.378;2023-06-14T01:33:26;97823.05;;;10.83;81.61
53526;BME280;40551;50.478;19.378;2023-06-14T01:36:02;97819.39;;;10.89;81.81
53526;BME280;40551;50.478;19.378;2023-06-14T01:38:34;97822.52;;;10.96;81.89
53526;BME280;40551;50.478;19.378;2023-06-14T01:41:07;97822.30;;;11.00;81.95
53526;BME280;40551;50.478;19.378;2023-06-14T01:43:40;97817.89;;;11.04;81.96
53526;BME280;40551;50.478;19.378;2023-06-14T01:46:13;97816.09;;;11.09;81.79
53526;BME280;40551;50.478;19.378;2023-06-14T01:48:46;97816.55;;;11.11;81.66
53526;BME280;40551;50.478;19.378;2023-06-14T01:51:18;97817.21;;;11.14;82.01
53526;BME280;40551;50.478;19.378;2023-06-14T01:53:51;97813.59;;;11.15;81.80
53526;BME280;40551;50.478;19.378;2023-06-14T01:56:21;97813.62;;;11.17;82.00
53526;BME280;40551;50.478;19.378;2023-06-14T01:58:53;97814.95;;;11.18;82.09
53526;BME280;40551;50.478;19.378;2023-06-14T02:01:26;97814.84;;;11.19;82.02
53526;BME280;40551;50.478;19.378;2023-06-14T02:03:57;97815.53;;;11.19;82.20
53526;BME280;40551;50.478;19.378;2023-06-14T02:06:29;97819.54;;;11.19;82.33
53526;BME280;40551;50.478;19.378;2023-06-14T02:09:00;97817.45;;;11.19;82.30
53526;BME280;40551;50.478;19.378;2023-06-14T02:11:32;97816.58;;;11.19;82.43
53526;BME280;40551;50.478;19.378;2023-06-14T02:14:02;97816.44;;;11.20;82.47
53526;BME280;40551;50.478;19.378;2023-06-14T02:16:33;97812.10;;;11.22;82.53
53526;BME280;40551;50.478;19.378;2023-06-14T02:19:06;97805.21;;;11.25;82.60
53526;BME280;40551;50.478;19.378;2023-06-14T02:21:39;97804.63;;;11.28;82.74
53526;BME280;40551;50.478;19.378;2023-06-14T02:24:11;97808.85;;;11.31;82.74
53526;BME280;40551;50.478;19.378;2023-06-14T02:26:43;97806.83;;;11.34;82.76
53526;BME280;40551;50.478;19.378;2023-06-14T02:29:17;97812.29;;;11.37;82.79
53526;BME280;40551;50.478;19.378;2023-06-14T02:31:47;97814.61;;;11.38;82.69
53526;BME280;40551;50.478;19.378;2023-06-14T02:34:23;97811.20;;;11.40;82.92
53526;BME280;40551;50.478;19.378;2023-06-14T02:36:55;97810.08;;;11.40;82.81
53526;BME280;40551;50.478;19.378;2023-06-14T02:39:27;97814.45;;;11.42;82.80
53526;BME280;40551;50.478;19.378;2023-06-14T02:41:57;97808.95;;;11.43;82.84
53526;BME280;40551;50.478;19.378;2023-06-14T02:44:30;97810.86;;;11.45;82.95
53526;BME280;40551;50.478;19.378;2023-06-14T02:47:03;97811.48;;;11.48;82.92
53526;BME280;40551;50.478;19.378;2023-06-14T02:49:35;97805.52;;;11.50;82.99
53526;BME280;40551;50.478;19.378;2023-06-14T02:52:06;97806.50;;;11.53;82.86
53526;BME280;40551;50.478;19.378;2023-06-14T02:54:39;97805.56;;;11.53;82.83
53526;BME280;40551;50.478;19.378;2023-06-14T02:57:12;97805.08;;;11.55;82.86
53526;BME280;40551;50.478;19.378;2023-06-14T02:59:44;97804.57;;;11.57;82.82
53526;BME280;40551;50.478;19.378;2023-06-14T03:02:14;97804.04;;;11.59;83.17
53526;BME280;40551;50.478;19.378;2023-06-14T03:04:46;97804.69;;;11.59;83.36
53526;BME280;40551;50.478;19.378;2023-06-14T03:07:19;97803.58;;;11.60;83.73
53526;BME280;40551;50.478;19.378;2023-06-14T03:09:53;97803.13;;;11.61;83.76
53526;BME280;40551;50.478;19.378;2023-06-14T03:12:23;97801.27;;;11.62;84.04
53526;BME280;40551;50.478;19.378;2023-06-14T03:14:55;97805.73;;;11.65;84.19
53526;BME280;40551;50.478;19.378;2023-06-14T03:17:28;97806.08;;;11.67;84.28
53526;BME280;40551;50.478;19.378;2023-06-14T03:20:07;97808.16;;;11.69;84.46
53526;BME280;40551;50.478;19.378;2023-06-14T03:22:39;97807.60;;;11.71;84.54
53526;BME280;40551;50.478;19.378;2023-06-14T03:25:11;97807.30;;;11.72;84.52
53526;BME280;40551;50.478;19.378;2023-06-14T03:27:44;97808.33;;;11.72;84.63
53526;BME280;40551;50.478;19.378;2023-06-14T03:30:16;97810.36;;;11.73;84.84
53526;BME280;40551;50.478;19.378;2023-06-14T03:32:49;97813.34;;;11.73;84.99
53526;BME280;40551;50.478;19.378;2023-06-14T03:35:23;97807.91;;;11.73;85.10
53526;BME280;40551;50.478;19.378;2023-06-14T03:37:57;97809.36;;;11.76;85.35
53526;BME280;40551;50.478;19.378;2023-06-14T03:40:29;97810.88;;;11.79;85.38
53526;BME280;40551;50.478;19.378;2023-06-14T03:43:05;97809.49;;;11.80;85.39
53526;BME280;40551;50.478;19.378;2023-06-14T03:45:37;97812.30;;;11.78;85.54
53526;BME280;40551;50.478;19.378;2023-06-14T03:48:10;97812.27;;;11.79;85.54
53526;BME280;40551;50.478;19.378;2023-06-14T03:50:45;97814.79;;;11.77;85.86
53526;BME280;40551;50.478;19.378;2023-06-14T03:53:17;97822.36;;;11.75;86.04
53526;BME280;40551;50.478;19.378;2023-06-14T03:55:51;97822.77;;;11.74;86.17
53526;BME280;40551;50.478;19.378;2023-06-14T03:58:29;97823.37;;;11.71;86.40
53526;BME280;40551;50.478;19.378;2023-06-14T04:00:59;97818.89;;;11.67;86.59
53526;BME280;40551;50.478;19.378;2023-06-14T04:03:33;97820.84;;;11.65;86.78
53526;BME280;40551;50.478;19.378;2023-06-14T04:06:06;97821.82;;;11.67;87.01
53526;BME280;40551;50.478;19.378;2023-06-14T04:08:38;97826.06;;;11.70;86.90
53526;BME280;40551;50.478;19.378;2023-06-14T04:11:10;97829.09;;;11.73;86.99
53526;BME280;40551;50.478;19.378;2023-06-14T04:13:40;97830.34;;;11.75;87.06
53526;BME280;40551;50.478;19.378;2023-06-14T04:16:11;97830.70;;;11.74;87.11
53526;BME280;40551;50.478;19.378;2023-06-14T04:18:43;97828.95;;;11.75;87.15
53526;BME280;40551;50.478;19.378;2023-06-14T04:21:15;97835.30;;;11.75;87.05
53526;BME280;40551;50.478;19.378;2023-06-14T04:23:45;97833.01;;;11.76;87.22
53526;BME280;40551;50.478;19.378;2023-06-14T04:26:17;97832.75;;;11.75;87.32
53526;BME280;40551;50.478;19.378;2023-06-14T04:28:52;97834.43;;;11.75;87.44
53526;BME280;40551;50.478;19.378;2023-06-14T04:31:27;97836.38;;;11.77;87.33
53526;BME280;40551;50.478;19.378;2023-06-14T04:34:00;97831.48;;;11.79;87.29
53526;BME280;40551;50.478;19.378;2023-06-14T04:36:31;97831.23;;;11.82;87.16
53526;BME280;40551;50.478;19.378;2023-06-14T04:39:05;97834.58;;;11.82;87.37
53526;BME280;40551;50.478;19.378;2023-06-14T04:41:37;97833.76;;;11.81;87.23
53526;BME280;40551;50.478;19.378;2023-06-14T04:44:07;97832.04;;;11.85;87.34
53526;BME280;40551;50.478;19.378;2023-06-14T04:46:44;97832.63;;;11.86;87.35
53526;BME280;40551;50.478;19.378;2023-06-14T04:49:20;97833.61;;;11.89;87.29
53526;BME280;40551;50.478;19.378;2023-06-14T04:51:53;97836.39;;;11.89;87.04
53526;BME280;40551;50.478;19.378;2023-06-14T04:54:29;97838.83;;;11.88;86.99
53526;BME280;40551;50.478;19.378;2023-06-14T04:57:08;97836.11;;;11.86;87.05
53526;BME280;40551;50.478;19.378;2023-06-14T04:59:46;97838.16;;;11.84;87.03
53526;BME280;40551;50.478;19.378;2023-06-14T05:02:18;97840.61;;;11.84;87.09
53526;BME280;40551;50.478;19.378;2023-06-14T05:04:49;97840.97;;;11.82;87.22
53526;BME280;40551;50.478;19.378;2023-06-14T05:07:22;97842.15;;;11.83;87.46
53526;BME280;40551;50.478;19.378;2023-06-14T05:09:55;97847.59;;;11.84;87.27
53526;BME280;40551;50.478;19.378;2023-06-14T05:12:25;97843.41;;;11.82;87.30
53526;BME280;40551;50.478;19.378;2023-06-14T05:14:56;97844.92;;;11.81;87.44
53526;BME280;40551;50.478;19.378;2023-06-14T05:17:28;97846.07;;;11.81;87.42
53526;BME280;40551;50.478;19.378;2023-06-14T05:20:00;97851.80;;;11.81;87.57
53526;BME280;40551;50.478;19.378;2023-06-14T05:22:33;97852.91;;;11.79;87.57
53526;BME280;40551;50.478;19.378;2023-06-14T05:25:07;97857.15;;;11.76;87.61
53526;BME280;40551;50.478;19.378;2023-06-14T05:27:38;97858.98;;;11.73;87.73
53526;BME280;40551;50.478;19.378;2023-06-14T05:30:14;97861.77;;;11.68;88.08
53526;BME280;40551;50.478;19.378;2023-06-14T05:32:47;97866.81;;;11.64;88.12
53526;BME280;40551;50.478;19.378;2023-06-14T05:35:19;97863.91;;;11.63;88.24
53526;BME280;40551;50.478;19.378;2023-06-14T05:37:52;97864.27;;;11.65;88.15
53526;BME280;40551;50.478;19.378;2023-06-14T05:40:24;97868.27;;;11.67;88.17
53526;BME280;40551;50.478;19.378;2023-06-14T05:42:59;97871.96;;;11.70;88.17
53526;BME280;40551;50.478;19.378;2023-06-14T05:45:30;97868.81;;;11.74;88.13
53526;BME280;40551;50.478;19.378;2023-06-14T05:48:01;97865.30;;;11.76;88.05
53526;BME280;40551;50.478;19.378;2023-06-14T05:50:32;97865.98;;;11.78;88.03
53526;BME280;40551;50.478;19.378;2023-06-14T05:53:04;97861.41;;;11.83;88.24
53526;BME280;40551;50.478;19.378;2023-06-14T05:55:34;97863.09;;;11.87;88.05
53526;BME280;40551;50.478;19.378;2023-06-14T05:58:07;97865.98;;;11.92;88.08
53526;BME280;40551;50.478;19.378;2023-06-14T06:00:37;97863.80;;;11.97;87.96
53526;BME280;40551;50.478;19.378;2023-06-14T06:03:09;97873.63;;;12.01;87.88
53526;BME280;40551;50.478;19.378;2023-06-14T06:05:42;97871.77;;;11.99;87.50
53526;BME280;40551;50.478;19.378;2023-06-14T06:08:12;97875.59;;;11.95;87.39
53526;BME280;40551;50.478;19.378;2023-06-14T06:10:44;97875.94;;;11.93;87.52
53526;BME280;40551;50.478;19.378;2023-06-14T06:13:16;97878.28;;;11.92;87.19
53526;BME280;40551;50.478;19.378;2023-06-14T06:15:47;97880.71;;;11.92;87.42
53526;BME280;40551;50.478;19.378;2023-06-14T06:18:18;97880.55;;;11.94;87.60
53526;BME280;40551;50.478;19.378;2023-06-14T06:20:49;97881.40;;;11.94;87.60
53526;BME280;40551;50.478;19.378;2023-06-14T06:23:21;97880.83;;;11.95;87.64
53526;BME280;40551;50.478;19.378;2023-06-14T06:25:51;97884.14;;;11.96;87.71
53526;BME280;40551;50.478;19.378;2023-06-14T06:28:23;97885.75;;;11.98;87.60
53526;BME280;40551;50.478;19.378;2023-06-14T06:30:53;97884.02;;;11.99;87.47
53526;BME280;40551;50.478;19.378;2023-06-14T06:33:25;97883.66;;;12.00;87.79
53526;BME280;40551;50.478;19.378;2023-06-14T06:35:55;97881.83;;;11.99;87.85
53526;BME280;40551;50.478;19.378;2023-06-14T06:38:26;97884.06;;;12.01;87.89
53526;BME280;40551;50.478;19.378;2023-06-14T06:40:57;97883.91;;;12.07;88.18
53526;BME280;40551;50.478;19.378;2023-06-14T06:43:28;97889.45;;;12.12;88.11
53526;BME280;40551;50.478;19.378;2023-06-14T06:46:00;97889.85;;;12.17;87.81
53526;BME280;40551;50.478;19.378;2023-06-14T06:48:32;97890.12;;;12.21;87.71
53526;BME280;40551;50.478;19.378;2023-06-14T06:51:02;97888.21;;;12.31;88.14
53526;BME280;40551;50.478;19.378;2023-06-14T06:53:34;97889.65;;;12.44;88.18
53526;BME280;40551;50.478;19.378;2023-06-14T06:56:13;97893.78;;;12.57;88.28
53526;BME280;40551;50.478;19.378;2023-06-14T06:58:45;97900.46;;;12.70;88.28
53526;BME280;40551;50.478;19.378;2023-06-14T07:01:15;97902.63;;;12.79;87.62
53526;BME280;40551;50.478;19.378;2023-06-14T07:03:46;97900.84;;;12.79;87.21
53526;BME280;40551;50.478;19.378;2023-06-14T07:06:18;97901.95;;;12.82;86.96
53526;BME280;40551;50.478;19.378;2023-06-14T07:08:48;97899.38;;;12.83;86.84
53526;BME280;40551;50.478;19.378;2023-06-14T07:11:19;97899.84;;;12.86;86.90
53526;BME280;40551;50.478;19.378;2023-06-14T07:13:51;97898.65;;;12.89;86.88
53526;BME280;40551;50.478;19.378;2023-06-14T07:16:23;97899.63;;;12.92;86.75
53526;BME280;40551;50.478;19.378;2023-06-14T07:18:56;97897.48;;;12.92;86.49
53526;BME280;40551;50.478;19.378;2023-06-14T07:21:26;97900.13;;;12.90;86.68
53526;BME280;40551;50.478;19.378;2023-06-14T07:23:57;97903.07;;;12.90;86.52
53526;BME280;40551;50.478;19.378;2023-06-14T07:26:29;97905.94;;;12.89;86.70
53526;BME280;40551;50.478;19.378;2023-06-14T07:29:01;97911.97;;;12.90;86.63
53526;BME280;40551;50.478;19.378;2023-06-14T07:31:32;97916.27;;;12.96;87.09
53526;BME280;40551;50.478;19.378;2023-06-14T07:34:04;97925.21;;;13.04;86.90
53526;BME280;40551;50.478;19.378;2023-06-14T07:36:36;97928.26;;;13.05;86.76
53526;BME280;40551;50.478;19.378;2023-06-14T07:39:08;97931.41;;;13.03;86.50
53526;BME280;40551;50.478;19.378;2023-06-14T07:41:40;97929.91;;;13.08;86.83
53526;BME280;40551;50.478;19.378;2023-06-14T07:44:10;97936.02;;;13.13;86.46
53526;BME280;40551;50.478;19.378;2023-06-14T07:46:42;97935.46;;;13.15;86.40
53526;BME280;40551;50.478;19.378;2023-06-14T07:49:14;97940.73;;;13.17;86.28
53526;BME280;40551;50.478;19.378;2023-06-14T07:51:47;97940.98;;;13.11;86.17
53526;BME280;40551;50.478;19.378;2023-06-14T07:54:18;97941.61;;;12.99;86.14
53526;BME280;40551;50.478;19.378;2023-06-14T07:56:50;97942.77;;;12.94;86.55
53526;BME280;40551;50.478;19.378;2023-06-14T07:59:22;97942.37;;;12.93;86.56
53526;BME280;40551;50.478;19.378;2023-06-14T08:01:52;97940.82;;;12.94;86.90
53526;BME280;40551;50.478;19.378;2023-06-14T08:04:23;97939.31;;;12.95;87.00
53526;BME280;40551;50.478;19.378;2023-06-14T08:06:53;97943.37;;;13.02;87.27
53526;BME280;40551;50.478;19.378;2023-06-14T08:09:25;97940.73;;;13.06;87.05
53526;BME280;40551;50.478;19.378;2023-06-14T08:11:59;97940.52;;;13.06;86.89
53526;BME280;40551;50.478;19.378;2023-06-14T08:14:31;97937.84;;;13.10;86.78
53526;BME280;40551;50.478;19.378;2023-06-14T08:17:02;97933.48;;;13.14;87.03
53526;BME280;40551;50.478;19.378;2023-06-14T08:19:34;97939.91;;;13.16;87.22
53526;BME280;40551;50.478;19.378;2023-06-14T08:22:06;97939.21;;;13.18;86.91
53526;BME280;40551;50.478;19.378;2023-06-14T08:24:38;97942.59;;;13.23;86.84
53526;BME280;40551;50.478;19.378;2023-06-14T08:27:11;97945.65;;;13.22;86.42
53526;BME280;40551;50.478;19.378;2023-06-14T08:29:43;97947.21;;;13.22;86.56
53526;BME280;40551;50.478;19.378;2023-06-14T08:32:15;97946.16;;;13.20;86.50
53526;BME280;40551;50.478;19.378;2023-06-14T08:34:46;97946.30;;;13.26;86.96
53526;BME280;40551;50.478;19.378;2023-06-14T08:37:34;97950.44;;;13.32;87.04
53526;BME280;40551;50.478;19.378;2023-06-14T08:40:20;97945.48;;;13.33;86.56
53526;BME280;40551;50.478;19.378;2023-06-14T08:42:54;97945.32;;;13.32;86.66
53526;BME280;40551;50.478;19.378;2023-06-14T08:45:26;97944.58;;;13.29;86.49
53526;BME280;40551;50.478;19.378;2023-06-14T08:48:00;97951.77;;;13.23;86.33
53526;BME280;40551;50.478;19.378;2023-06-14T08:50:33;97952.67;;;13.18;86.50
53526;BME280;40551;50.478;19.378;2023-06-14T08:53:09;97955.81;;;13.12;86.60
53526;BME280;40551;50.478;19.378;2023-06-14T08:55:43;97957.75;;;13.10;86.59
53526;BME280;40551;50.478;19.378;2023-06-14T08:58:15;97962.48;;;13.08;86.88
53526;BME280;40551;50.478;19.378;2023-06-14T09:00:47;97968.56;;;13.01;86.81
53526;BME280;40551;50.478;19.378;2023-06-14T09:03:20;97971.27;;;12.94;86.86
53526;BME280;40551;50.478;19.378;2023-06-14T09:05:52;97975.19;;;12.92;87.17
53526;BME280;40551;50.478;19.378;2023-06-14T09:08:24;97981.38;;;12.82;87.23
53526;BME280;40551;50.478;19.378;2023-06-14T09:10:56;97983.30;;;12.72;87.53
53526;BME280;40551;50.478;19.378;2023-06-14T09:13:29;97977.42;;;12.70;87.78
53526;BME280;40551;50.478;19.378;2023-06-14T09:16:02;97976.56;;;12.74;88.08
53526;BME280;40551;50.478;19.378;2023-06-14T09:18:38;97979.16;;;12.76;88.19
53526;BME280;40551;50.478;19.378;2023-06-14T09:21:11;97982.70;;;12.79;88.34
53526;BME280;40551;50.478;19.378;2023-06-14T09:23:44;97985.70;;;12.83;88.52
53526;BME280;40551;50.478;19.378;2023-06-14T09:26:17;97987.69;;;12.85;88.37
53526;BME280;40551;50.478;19.378;2023-06-14T09:28:50;97986.35;;;12.88;88.49
53526;BME280;40551;50.478;19.378;2023-06-14T09:31:22;97986.70;;;12.93;88.51
53526;BME280;40551;50.478;19.378;2023-06-14T09:33:54;97986.10;;;12.98;88.58
53526;BME280;40551;50.478;19.378;2023-06-14T09:36:26;97989.45;;;13.01;88.42
53526;BME280;40551;50.478;19.378;2023-06-14T09:39:00;97989.80;;;13.01;88.38
53526;BME280;40551;50.478;19.378;2023-06-14T09:41:36;97988.17;;;13.02;88.29
53526;BME280;40551;50.478;19.378;2023-06-14T09:44:10;97986.80;;;13.03;88.50
53526;BME280;40551;50.478;19.378;2023-06-14T09:46:50;97985.55;;;13.00;88.39
53526;BME280;40551;50.478;19.378;2023-06-14T09:49:22;97983.75;;;12.98;88.44
53526;BME280;40551;50.478;19.378;2023-06-14T09:51:56;97982.70;;;12.97;88.75
53526;BME280;40551;50.478;19.378;2023-06-14T09:54:30;97975.02;;;12.97;88.77
53526;BME280;40551;50.478;19.378;2023-06-14T09:57:05;97978.14;;;12.99;88.82
53526;BME280;40551;50.478;19.378;2023-06-14T09:59:41;97975.42;;;13.04;89.13
53526;BME280;40551;50.478;19.378;2023-06-14T10:02:18;97974.48;;;13.08;89.14
53526;BME280;40551;50.478;19.378;2023-06-14T10:04:57;97975.38;;;13.15;89.20
53526;BME280;40551;50.478;19.378;2023-06-14T10:07:35;97977.44;;;13.23;89.19
53526;BME280;40551;50.478;19.378;2023-06-14T10:10:12;97979.91;;;13.32;89.16
53526;BME280;40551;50.478;19.378;2023-06-14T10:12:44;97981.23;;;13.41;89.26
53526;BME280;40551;50.478;19.378;2023-06-14T10:15:19;97985.30;;;13.51;89.18
53526;BME280;40551;50.478;19.378;2023-06-14T10:17:56;97991.77;;;13.58;88.69
53526;BME280;40551;50.478;19.378;2023-06-14T10:20:33;97987.27;;;13.60;88.53
53526;BME280;40551;50.478;19.378;2023-06-14T10:23:13;97987.89;;;13.64;88.76
53526;BME280;40551;50.478;19.378;2023-06-14T10:25:50;97989.10;;;13.68;88.37
53526;BME280;40551;50.478;19.378;2023-06-14T10:28:26;97991.91;;;13.69;88.13
53526;BME280;40551;50.478;19.378;2023-06-14T10:31:04;97989.39;;;13.72;88.31
53526;BME280;40551;50.478;19.378;2023-06-14T10:33:48;97991.23;;;13.72;88.16
53526;BME280;40551;50.478;19.378;2023-06-14T10:36:29;97988.68;;;13.65;87.83
53526;BME280;40551;50.478;19.378;2023-06-14T10:39:10;97987.39;;;13.64;87.96
53526;BME280;40551;50.478;19.378;2023-06-14T10:41:50;97985.77;;;13.64;87.81
53526;BME280;40551;50.478;19.378;2023-06-14T10:44:50;97986.20;;;13.65;87.88
53526;BME280;40551;50.478;19.378;2023-06-14T10:47:32;97983.67;;;13.71;88.12
53526;BME280;40551;50.478;19.378;2023-06-14T10:50:15;97983.23;;;13.74;87.71
53526;BME280;40551;50.478;19.378;2023-06-14T10:52:51;97982.51;;;13.72;87.58
53526;BME280;40551;50.478;19.378;2023-06-14T10:55:21;97984.05;;;13.73;87.72
53526;BME280;40551;50.478;19.378;2023-06-14T10:57:55;97977.84;;;13.74;87.56
53526;BME280;40551;50.478;19.378;2023-06-14T11:00:29;97980.77;;;13.71;87.43
53526;BME280;40551;50.478;19.378;2023-06-14T11:06:15;97969.55;;;13.71;87.55
53526;BME280;40551;50.478;19.378;2023-06-14T11:11:57;97965.42;;;13.76;87.38
53526;BME280;40551;50.478;19.378;2023-06-14T11:14:32;97965.55;;;13.73;87.12
53526;BME280;40551;50.478;19.378;2023-06-14T11:17:06;97969.50;;;13.73;87.04
53526;BME280;40551;50.478;19.378;2023-06-14T11:19:38;97975.88;;;13.74;87.13
53526;BME280;40551;50.478;19.378;2023-06-14T11:22:09;97974.36;;;13.74;87.28
53526;BME280;40551;50.478;19.378;2023-06-14T11:24:39;97972.67;;;13.73;87.18
53526;BME280;40551;50.478;19.378;2023-06-14T11:27:11;97968.23;;;13.78;87.64
53526;BME280;40551;50.478;19.378;2023-06-14T11:29:50;97965.70;;;13.89;88.00
53526;BME280;40551;50.478;19.378;2023-06-14T11:32:21;97964.02;;;13.97;87.68
53526;BME280;40551;50.478;19.378;2023-06-14T11:34:56;97965.42;;;14.04;87.65
53526;BME280;40551;50.478;19.378;2023-06-14T11:37:29;97964.54;;;14.14;87.98
53526;BME280;40551;50.478;19.378;2023-06-14T11:40:01;97962.36;;;14.24;87.69
53526;BME280;40551;50.478;19.378;2023-06-14T11:42:34;97962.02;;;14.31;87.56
53526;BME280;40551;50.478;19.378;2023-06-14T11:45:10;97960.80;;;14.36;87.02
53526;BME280;40551;50.478;19.378;2023-06-14T11:47:42;97960.35;;;14.38;87.11
53526;BME280;40551;50.478;19.378;2023-06-14T11:50:14;97961.94;;;14.43;86.92
53526;BME280;40551;50.478;19.378;2023-06-14T11:52:53;97960.48;;;14.46;86.24
53526;BME280;40551;50.478;19.378;2023-06-14T11:55:26;97957.45;;;14.49;86.52
53526;BME280;40551;50.478;19.378;2023-06-14T11:57:57;97957.22;;;14.53;86.22
53526;BME280;40551;50.478;19.378;2023-06-14T12:00:29;97955.93;;;14.58;86.55
53526;BME280;40551;50.478;19.378;2023-06-14T12:03:01;97955.16;;;14.66;86.21
53526;BME280;40551;50.478;19.378;2023-06-14T12:05:34;97955.04;;;14.72;86.15
53526;BME280;40551;50.478;19.378;2023-06-14T12:08:06;97952.02;;;14.79;85.78
53526;BME280;40551;50.478;19.378;2023-06-14T12:10:44;97949.20;;;14.88;85.76
53526;BME280;40551;50.478;19.378;2023-06-14T12:13:18;97945.94;;;14.98;85.60
53526;BME280;40551;50.478;19.378;2023-06-14T12:15:58;97942.34;;;15.02;85.28
53526;BME280;40551;50.478;19.378;2023-06-14T12:18:37;97939.37;;;15.02;84.49
53526;BME280;40551;50.478;19.378;2023-06-14T12:21:10;97936.73;;;14.95;83.99
53526;BME280;40551;50.478;19.378;2023-06-14T12:23:49;97934.13;;;14.97;84.49
53526;BME280;40551;50.478;19.378;2023-06-14T12:26:22;97933.77;;;15.03;84.28
53526;BME280;40551;50.478;19.378;2023-06-14T12:28:57;97934.21;;;15.11;84.24
53526;BME280;40551;50.478;19.378;2023-06-14T12:31:31;97934.29;;;15.20;84.05
53526;BME280;40551;50.478;19.378;2023-06-14T12:34:03;97937.48;;;15.31;84.06
53526;BME280;40551;50.478;19.378;2023-06-14T12:36:35;97940.22;;;15.33;83.07
53526;BME280;40551;50.478;19.378;2023-06-14T12:39:13;97937.54;;;15.37;83.15
53526;BME280;40551;50.478;19.378;2023-06-14T12:41:45;97935.73;;;15.44;83.05
53526;BME280;40551;50.478;19.378;2023-06-14T12:44:16;97934.10;;;15.49;82.49
53526;BME280;40551;50.478;19.378;2023-06-14T12:46:48;97932.48;;;15.53;82.39
53526;BME280;40551;50.478;19.378;2023-06-14T12:49:21;97928.75;;;15.59;82.48
53526;BME280;40551;50.478;19.378;2023-06-14T12:51:53;97928.84;;;15.63;82.08
53526;BME280;40551;50.478;19.378;2023-06-14T12:54:24;97936.67;;;15.68;82.11
53526;BME280;40551;50.478;19.378;2023-06-14T12:57:10;97939.30;;;15.70;81.58
53526;BME280;40551;50.478;19.378;2023-06-14T12:59:42;97941.58;;;15.72;81.39
53526;BME280;40551;50.478;19.378;2023-06-14T13:02:16;97940.21;;;15.73;81.38
53526;BME280;40551;50.478;19.378;2023-06-14T13:04:50;97931.33;;;15.78;81.99
53526;BME280;40551;50.478;19.378;2023-06-14T13:07:22;97926.46;;;15.85;81.99
53526;BME280;40551;50.478;19.378;2023-06-14T13:09:54;97928.29;;;15.94;82.49
53526;BME280;40551;50.478;19.378;2023-06-14T13:12:26;97928.10;;;16.02;82.31
53526;BME280;40551;50.478;19.378;2023-06-14T13:14:57;97926.01;;;16.09;82.04
53526;BME280;40551;50.478;19.378;2023-06-14T13:17:29;97928.50;;;16.10;81.38
53526;BME280;40551;50.478;19.378;2023-06-14T13:20:03;97927.48;;;16.17;82.11
53526;BME280;40551;50.478;19.378;2023-06-14T13:22:35;97933.95;;;16.22;81.80
53526;BME280;40551;50.478;19.378;2023-06-14T13:25:09;97941.04;;;16.22;80.86
53526;BME280;40551;50.478;19.378;2023-06-14T13:27:41;97942.40;;;16.20;80.65